createdAt,value
2023-03-03T00:00:02.393Z,4.62
2023-03-03T00:02:40.299Z,4.57
2023-03-03T00:05:15.462Z,4.54
2023-03-03T00:07:44.964Z,4.62
2023-03-03T00:10:13.067Z,4.59
2023-03-03T00:12:48.438Z,4.60
2023-03-03T00:15:17.944Z,4.34
2023-03-03T00:17:46.437Z,4.24
2023-03-03T00:20:41.128Z,4.42
2023-03-03T00:23:20.478Z,4.65
2023-03-03T00:25:51.901Z,4.38
2023-03-03T00:28:25.888Z,4.27
2023-03-03T00:30:55.299Z,4.43
2023-03-03T00:33:33.144Z,4.47
2023-03-03T00:36:23.079Z,4.33
2023-03-03T00:38:51.182Z,4.29
2023-03-03T00:41:24.193Z,4.42
2023-03-03T00:43:52.967Z,4.44
2023-03-03T00:46:22.635Z,4.39
2023-03-03T00:48:51.655Z,4.43
2023-03-03T00:51:29.086Z,4.34
2023-03-03T00:53:58.271Z,4.40
2023-03-03T00:56:26.507Z,4.46
2023-03-03T00:58:54.979Z,4.19
2023-03-03T01:01:25.593Z,4.20
2023-03-03T01:03:55.181Z,4.58
2023-03-03T01:06:24.834Z,4.69
2023-03-03T01:08:52.941Z,4.44
2023-03-03T01:11:24.987Z,4.25
2023-03-03T01:13:54.611Z,4.29
2023-03-03T01:16:23.030Z,4.41
2023-03-03T01:18:51.869Z,4.24
2023-03-03T01:21:19.773Z,4.49
2023-03-03T01:23:49.065Z,4.41
2023-03-03T01:26:17.038Z,4.56
2023-03-03T01:28:45.106Z,4.51
2023-03-03T01:31:13.638Z,4.07
2023-03-03T01:33:41.559Z,4.18
2023-03-03T01:36:09.631Z,4.21
2023-03-03T01:38:38.417Z,4.11
2023-03-03T01:41:07.817Z,4.41
2023-03-03T01:43:35.934Z,4.34
2023-03-03T01:46:47.767Z,4.59
2023-03-03T01:49:20.475Z,4.52
2023-03-03T01:51:51.979Z,4.55
2023-03-03T01:54:25.159Z,4.57
2023-03-03T01:56:57.003Z,4.62
2023-03-03T01:59:29.849Z,4.37
2023-03-03T02:01:57.831Z,4.27
2023-03-03T02:04:26.505Z,3.88
2023-03-03T02:06:59.217Z,4.26
2023-03-03T02:09:35.145Z,4.36
2023-03-03T02:12:08.147Z,4.23
2023-03-03T02:14:36.314Z,4.28
2023-03-03T02:17:04.437Z,4.39
2023-03-03T02:19:40.746Z,4.36
2023-03-03T02:22:08.922Z,4.31
2023-03-03T02:24:43.467Z,4.18
2023-03-03T02:27:14.075Z,4.38
2023-03-03T02:29:43.639Z,4.34
2023-03-03T02:32:12.434Z,4.44
2023-03-03T02:34:51.149Z,4.30
2023-03-03T02:37:20.559Z,4.19
2023-03-03T02:39:48.697Z,4.21
2023-03-03T02:42:24.102Z,4.25
2023-03-03T02:44:55.560Z,4.14
2023-03-03T02:47:23.481Z,4.13
2023-03-03T02:49:51.411Z,4.25
2023-03-03T02:52:19.397Z,4.30
2023-03-03T02:54:48.462Z,4.22
2023-03-03T02:57:16.412Z,4.34
2023-03-03T02:59:45.673Z,4.24
2023-03-03T03:02:19.323Z,3.90
2023-03-03T03:04:47.751Z,4.08
2023-03-03T03:07:19.951Z,4.17
2023-03-03T03:09:47.885Z,3.75
2023-03-03T03:12:16.045Z,3.70
2023-03-03T03:14:45.985Z,3.81
2023-03-03T03:17:14.698Z,3.89
2023-03-03T03:19:44.689Z,3.97
2023-03-03T03:22:12.808Z,4.05
2023-03-03T03:24:40.749Z,3.91
2023-03-03T03:27:10.438Z,4.01
2023-03-03T03:29:38.428Z,3.78
2023-03-03T03:32:08.505Z,3.54
2023-03-03T03:34:36.916Z,3.91
2023-03-03T03:37:05.648Z,3.87
2023-03-03T03:39:34.539Z,3.98
2023-03-03T03:42:02.588Z,3.80
2023-03-03T03:44:30.788Z,3.85
2023-03-03T03:46:58.681Z,3.98
2023-03-03T03:49:28.598Z,3.51
2023-03-03T03:51:58.637Z,3.74
2023-03-03T03:54:29.823Z,3.94
2023-03-03T03:56:58.256Z,3.79
2023-03-03T03:59:27.978Z,4.06
2023-03-03T04:01:56.010Z,3.96
2023-03-03T04:04:25.240Z,3.95
2023-03-03T04:06:55.531Z,3.93
2023-03-03T04:09:23.625Z,3.81
2023-03-03T04:11:51.509Z,3.60
2023-03-03T04:14:19.679Z,3.71
2023-03-03T04:16:47.616Z,3.67
2023-03-03T04:19:15.565Z,3.69
2023-03-03T04:21:44.239Z,3.74
2023-03-03T04:24:13.581Z,3.72
2023-03-03T04:26:41.916Z,3.54
2023-03-03T04:29:11.678Z,3.38
2023-03-03T04:31:41.249Z,3.40
2023-03-03T04:34:10.965Z,3.44
2023-03-03T04:36:39.882Z,3.61
2023-03-03T04:39:08.083Z,3.52
2023-03-03T04:41:37.409Z,3.52
2023-03-03T04:44:05.613Z,3.54
2023-03-03T04:46:33.760Z,3.69
2023-03-03T04:49:03.868Z,3.66
2023-03-03T04:51:32.709Z,3.65
2023-03-03T04:54:00.629Z,3.04
2023-03-03T04:56:31.721Z,3.51
2023-03-03T04:59:01.076Z,3.48
2023-03-03T05:01:29.504Z,3.54
2023-03-03T05:03:57.595Z,3.38
2023-03-03T05:06:25.659Z,3.43
2023-03-03T05:08:53.625Z,3.60
2023-03-03T05:11:21.721Z,3.75
2023-03-03T05:13:49.559Z,3.76
2023-03-03T05:16:18.819Z,3.31
2023-03-03T05:18:47.477Z,3.60
2023-03-03T05:21:15.512Z,3.58
2023-03-03T05:23:43.446Z,3.82
2023-03-03T05:26:11.707Z,3.66
2023-03-03T05:28:39.588Z,3.58
2023-03-03T05:31:07.531Z,3.76
2023-03-03T05:33:36.926Z,3.79
2023-03-03T05:36:05.244Z,3.62
2023-03-03T05:38:33.093Z,3.71
2023-03-03T05:41:00.961Z,3.68
2023-03-03T05:43:29.280Z,3.79
2023-03-03T05:45:57.687Z,3.93
2023-03-03T05:48:25.746Z,3.93
2023-03-03T05:50:55.044Z,4.00
2023-03-03T05:53:22.897Z,3.90
2023-03-03T05:55:50.816Z,3.91
2023-03-03T05:58:18.672Z,3.97
2023-03-03T06:00:46.564Z,4.05
2023-03-03T06:03:14.482Z,3.81
2023-03-03T06:05:42.363Z,3.87
2023-03-03T06:08:11.619Z,3.92
2023-03-03T06:10:39.475Z,3.90
2023-03-03T06:13:09.968Z,3.90
2023-03-03T06:15:38.140Z,3.99
2023-03-03T06:18:06.209Z,4.02
2023-03-03T06:20:35.392Z,3.74
2023-03-03T06:23:03.333Z,3.19
2023-03-03T06:25:35.654Z,3.70
2023-03-03T06:28:03.729Z,3.86
2023-03-03T06:30:31.726Z,4.04
2023-03-03T06:32:59.586Z,4.00
2023-03-03T06:35:28.652Z,3.91
2023-03-03T06:37:56.587Z,3.64
2023-03-03T06:40:24.486Z,3.48
2023-03-03T06:42:53.743Z,3.65
2023-03-03T06:45:21.589Z,3.50
2023-03-03T06:47:49.564Z,3.71
2023-03-03T06:50:21.361Z,3.73
2023-03-03T06:52:49.270Z,3.69
2023-03-03T06:55:23.681Z,3.82
2023-03-03T06:57:55.836Z,3.73
2023-03-03T07:00:29.536Z,3.86
2023-03-03T07:03:02.758Z,3.78
2023-03-03T07:05:30.842Z,3.93
2023-03-03T07:07:58.881Z,3.92
2023-03-03T07:10:28.728Z,3.90
2023-03-03T07:13:03.244Z,3.93
2023-03-03T07:15:36.374Z,4.06
2023-03-03T07:18:07.852Z,4.17
2023-03-03T07:20:39.909Z,4.07
2023-03-03T07:23:20.159Z,3.43
2023-03-03T07:25:48.585Z,3.88
2023-03-03T07:28:24.033Z,3.84
2023-03-03T07:30:52.184Z,3.90
2023-03-03T07:33:26.595Z,3.97
2023-03-03T07:35:56.365Z,3.91
2023-03-03T07:38:32.626Z,3.97
2023-03-03T07:41:02.996Z,4.11
2023-03-03T07:43:36.503Z,3.98
2023-03-03T07:46:22.889Z,3.70
2023-03-03T07:48:51.987Z,3.88
2023-03-03T07:51:25.303Z,3.76
2023-03-03T07:53:55.019Z,3.81
2023-03-03T07:56:30.482Z,3.74
2023-03-03T07:58:59.922Z,3.99
2023-03-03T08:01:40.816Z,4.09
2023-03-03T08:04:18.329Z,3.58
2023-03-03T08:06:49.465Z,3.88
2023-03-03T08:09:40.778Z,4.09
2023-03-03T08:12:36.162Z,4.34
2023-03-03T08:15:21.135Z,4.07
2023-03-03T08:17:50.472Z,4.15
2023-03-03T08:20:46.448Z,4.22
2023-03-03T08:23:15.959Z,4.10
2023-03-03T08:25:44.699Z,3.88
2023-03-03T08:28:14.065Z,4.09
2023-03-03T08:30:44.503Z,4.29
2023-03-03T08:33:12.982Z,4.21
2023-03-03T08:35:42.153Z,3.89
2023-03-03T08:38:10.770Z,4.38
2023-03-03T08:40:38.992Z,4.26
2023-03-03T08:43:07.016Z,4.47
2023-03-03T08:45:35.689Z,4.32
2023-03-03T08:48:06.257Z,4.65
2023-03-03T08:50:34.803Z,4.75
2023-03-03T08:53:02.715Z,4.56
2023-03-03T08:55:30.742Z,4.78
2023-03-03T08:57:58.866Z,4.83
2023-03-03T09:00:27.561Z,4.66
2023-03-03T09:02:55.884Z,4.88
2023-03-03T09:05:25.882Z,5.07
2023-03-03T09:07:54.316Z,4.90
2023-03-03T09:10:29.329Z,5.12
2023-03-03T09:13:01.248Z,5.29
2023-03-03T09:15:30.935Z,4.78
2023-03-03T09:18:00.459Z,5.12
2023-03-03T09:20:38.384Z,5.14
2023-03-03T09:23:29.993Z,5.20
2023-03-03T09:25:58.638Z,5.39
2023-03-03T09:28:29.186Z,5.32
2023-03-03T09:31:01.151Z,5.10
2023-03-03T09:33:33.423Z,5.23
2023-03-03T09:36:13.652Z,5.50
2023-03-03T09:38:45.710Z,5.62
2023-03-03T09:41:51.768Z,5.37
2023-03-03T09:44:41.994Z,5.44
2023-03-03T09:47:29.849Z,5.09
2023-03-03T09:50:10.283Z,5.70
2023-03-03T09:52:47.530Z,5.54
2023-03-03T09:55:30.247Z,5.91
2023-03-03T09:58:15.154Z,5.96
2023-03-03T10:00:56.116Z,5.84
2023-03-03T10:03:46.429Z,5.77
2023-03-03T10:06:26.081Z,5.99
2023-03-03T10:09:07.844Z,6.03
2023-03-03T10:11:45.733Z,5.98
2023-03-03T10:14:50.530Z,6.29
2023-03-03T10:17:31.579Z,6.01
2023-03-03T10:20:13.589Z,6.30
2023-03-03T10:22:51.810Z,5.40
2023-03-03T10:25:30.179Z,6.04
2023-03-03T10:28:09.462Z,6.25
2023-03-03T10:31:02.511Z,6.24
2023-03-03T10:33:42.769Z,5.92
2023-03-03T10:36:46.584Z,6.19
2023-03-03T10:39:30.421Z,5.96
2023-03-03T10:42:12.051Z,6.02
2023-03-03T10:44:58.939Z,5.88
2023-03-03T10:47:41.605Z,6.23
2023-03-03T10:50:22.224Z,6.53
2023-03-03T10:52:56.227Z,6.79
2023-03-03T10:55:39.360Z,6.74
2023-03-03T10:58:22.617Z,6.53
2023-03-03T11:00:57.590Z,6.46
2023-03-03T11:03:43.289Z,6.01
2023-03-03T11:06:19.920Z,6.27
2023-03-03T11:08:53.913Z,6.11
2023-03-03T11:11:30.403Z,6.61
2023-03-03T11:14:10.278Z,6.32
2023-03-03T11:16:49.086Z,6.15
2023-03-03T11:19:36.835Z,6.27
2023-03-03T11:22:14.848Z,6.67
2023-03-03T11:24:54.217Z,6.76
2023-03-03T11:27:44.693Z,6.49
2023-03-03T11:30:34.551Z,6.85
2023-03-03T11:33:05.906Z,6.75
2023-03-03T11:35:45.436Z,6.95
2023-03-03T11:38:28.640Z,7.05
2023-03-03T11:41:00.185Z,6.93
2023-03-03T11:43:37.218Z,6.74
2023-03-03T11:46:10.055Z,6.97
2023-03-03T11:48:47.336Z,6.83
2023-03-03T11:51:21.069Z,7.02
2023-03-03T11:53:59.489Z,6.93
2023-03-03T11:56:35.199Z,6.55
2023-03-03T11:59:30.223Z,6.93
2023-03-03T12:02:05.169Z,6.52
2023-03-03T12:04:38.381Z,7.17
2023-03-03T12:07:19.399Z,7.11
2023-03-03T12:09:57.420Z,6.82
2023-03-03T12:12:32.354Z,6.97
2023-03-03T12:15:20.297Z,7.38
2023-03-03T12:18:14.676Z,7.33
2023-03-03T12:20:50.632Z,7.46
2023-03-03T12:23:39.288Z,7.30
2023-03-03T12:26:12.915Z,6.75
2023-03-03T12:28:49.847Z,6.80
2023-03-03T12:31:37.199Z,7.37
2023-03-03T12:34:15.001Z,7.01
2023-03-03T12:37:05.229Z,7.17
2023-03-03T12:39:46.184Z,7.35
2023-03-03T12:42:25.306Z,7.41
2023-03-03T12:45:06.052Z,7.29
2023-03-03T12:47:39.403Z,7.55
2023-03-03T12:50:28.400Z,7.35
2023-03-03T12:53:10.384Z,7.77
2023-03-03T12:55:48.659Z,7.69
2023-03-03T12:58:26.655Z,7.66
2023-03-03T13:01:05.536Z,7.55
2023-03-03T13:03:55.084Z,7.38
2023-03-03T13:06:30.815Z,7.26
2023-03-03T13:09:09.542Z,7.61
2023-03-03T13:11:48.586Z,7.83
2023-03-03T13:14:30.631Z,7.85
2023-03-03T13:17:16.361Z,7.81
2023-03-03T13:19:50.478Z,7.83
2023-03-03T13:22:40.603Z,7.70
2023-03-03T13:25:26.239Z,7.46
2023-03-03T13:28:01.830Z,7.68
2023-03-03T13:30:34.195Z,7.92
2023-03-03T13:33:09.525Z,7.85
2023-03-03T13:35:45.510Z,7.96
2023-03-03T13:38:21.757Z,7.41
2023-03-03T13:40:54.404Z,7.43
2023-03-03T13:43:27.652Z,7.23
2023-03-03T13:45:59.899Z,7.76
2023-03-03T13:48:46.688Z,7.46
2023-03-03T13:51:27.781Z,7.37
2023-03-03T13:54:06.519Z,7.72
2023-03-03T13:56:48.565Z,7.76
2023-03-03T13:59:29.086Z,7.83
2023-03-03T14:02:02.549Z,7.36
2023-03-03T14:04:39.457Z,7.57
2023-03-03T14:07:15.496Z,7.46
2023-03-03T14:10:03.219Z,7.73
2023-03-03T14:12:43.574Z,7.70
2023-03-03T14:15:20.703Z,8.10
2023-03-03T14:18:00.934Z,8.12
2023-03-03T14:20:31.220Z,7.89
2023-03-03T14:23:02.854Z,8.38
2023-03-03T14:25:53.731Z,8.45
2023-03-03T14:28:23.320Z,8.52
2023-03-03T14:30:54.851Z,8.09
2023-03-03T14:33:30.747Z,8.37
2023-03-03T14:36:06.872Z,8.31
2023-03-03T14:38:41.433Z,8.35
2023-03-03T14:41:18.999Z,7.86
2023-03-03T14:43:57.694Z,8.25
2023-03-03T14:46:39.608Z,8.20
2023-03-03T14:49:14.552Z,8.41
2023-03-03T14:51:45.334Z,8.52
2023-03-03T14:54:23.508Z,8.56
2023-03-03T14:57:13.304Z,8.15
2023-03-03T14:59:41.709Z,8.23
2023-03-03T15:02:30.464Z,8.38
2023-03-03T15:05:22.067Z,8.20
2023-03-03T15:07:54.568Z,8.21
2023-03-03T15:10:34.827Z,8.11
2023-03-03T15:13:33.845Z,7.92
2023-03-03T15:16:11.328Z,8.22
2023-03-03T15:19:03.376Z,8.37
2023-03-03T15:21:34.067Z,8.24
2023-03-03T15:24:06.479Z,8.01
2023-03-03T15:26:44.738Z,8.38
2023-03-03T15:29:18.560Z,8.37
2023-03-03T15:31:56.825Z,8.09
2023-03-03T15:34:38.816Z,7.99
2023-03-03T15:37:30.662Z,7.98
2023-03-03T15:40:05.947Z,7.56
2023-03-03T15:42:39.260Z,7.90
2023-03-03T15:45:14.111Z,8.09
2023-03-03T15:48:06.369Z,8.15
2023-03-03T15:50:48.381Z,8.08
2023-03-03T15:53:28.470Z,8.02
2023-03-03T15:56:08.869Z,8.24
2023-03-03T15:59:01.783Z,8.13
2023-03-03T16:01:34.959Z,8.07
2023-03-03T16:04:07.682Z,8.20
2023-03-03T16:06:46.372Z,8.27
2023-03-03T16:09:30.036Z,8.16
2023-03-03T16:12:07.870Z,7.99
2023-03-03T16:14:53.353Z,7.88
2023-03-03T16:17:34.782Z,7.94
2023-03-03T16:20:14.200Z,7.88
2023-03-03T16:23:04.837Z,8.11
2023-03-03T16:25:53.427Z,7.87
2023-03-03T16:28:28.513Z,7.95
2023-03-03T16:31:04.666Z,7.87
2023-03-03T16:33:43.824Z,7.82
2023-03-03T16:36:24.261Z,7.69
2023-03-03T16:38:59.212Z,7.81
2023-03-03T16:41:39.678Z,7.76
2023-03-03T16:44:19.976Z,7.70
2023-03-03T16:46:50.649Z,7.50
2023-03-03T16:49:26.173Z,7.77
2023-03-03T16:52:02.252Z,7.75
2023-03-03T16:54:35.822Z,7.61
2023-03-03T16:57:12.160Z,7.69
2023-03-03T17:00:03.988Z,7.64
2023-03-03T17:03:16.589Z,7.47
2023-03-03T17:05:53.422Z,7.52
2023-03-03T17:08:47.914Z,7.59
2023-03-03T17:11:22.563Z,7.53
2023-03-03T17:14:08.007Z,7.40
2023-03-03T17:16:52.474Z,7.46
2023-03-03T17:19:32.664Z,7.41
2023-03-03T17:22:13.757Z,7.48
2023-03-03T17:24:55.530Z,7.41
2023-03-03T17:27:34.215Z,7.26
2023-03-03T17:30:15.543Z,7.29
2023-03-03T17:33:22.032Z,7.15
2023-03-03T17:36:07.617Z,7.30
2023-03-03T17:38:49.274Z,7.33
2023-03-03T17:41:25.411Z,7.29
2023-03-03T17:44:03.029Z,7.28
2023-03-03T17:46:37.098Z,7.37
2023-03-03T17:49:47.712Z,7.48
2023-03-03T17:52:35.621Z,7.51
2023-03-03T17:55:35.135Z,7.67
2023-03-03T17:58:26.440Z,7.50
2023-03-03T18:01:05.914Z,7.80
2023-03-03T18:04:06.999Z,7.88
2023-03-03T18:07:05.957Z,7.71
2023-03-03T18:09:48.162Z,7.82
2023-03-03T18:12:27.967Z,7.68
2023-03-03T18:15:24.364Z,7.82
2023-03-03T18:18:05.809Z,7.83
2023-03-03T18:21:01.015Z,7.67
2023-03-03T18:23:42.719Z,7.67
2023-03-03T18:26:38.241Z,7.72
2023-03-03T18:29:24.929Z,7.72
2023-03-03T18:32:05.677Z,7.88
2023-03-03T18:34:38.977Z,7.85
2023-03-03T18:37:12.069Z,7.65
2023-03-03T18:39:43.406Z,7.83
2023-03-03T18:42:40.069Z,7.55
2023-03-03T18:45:43.765Z,7.79
2023-03-03T18:48:14.136Z,7.65
2023-03-03T18:50:43.844Z,7.62
2023-03-03T18:53:28.890Z,7.64
2023-03-03T18:55:58.831Z,7.66
2023-03-03T18:58:38.496Z,7.80
2023-03-03T19:01:40.038Z,7.55
2023-03-03T19:04:18.594Z,7.49
2023-03-03T19:07:11.850Z,7.42
2023-03-03T19:09:57.069Z,7.50
2023-03-03T19:12:46.664Z,7.57
2023-03-03T19:15:48.361Z,7.49
2023-03-03T19:18:19.375Z,7.55
2023-03-03T19:20:53.993Z,7.40
2023-03-03T19:23:23.911Z,7.47
2023-03-03T19:26:20.084Z,7.41
2023-03-03T19:28:57.342Z,7.65
2023-03-03T19:31:33.727Z,7.50
2023-03-03T19:34:08.558Z,7.42
2023-03-03T19:37:02.337Z,7.50
2023-03-03T19:39:46.430Z,7.63
2023-03-03T19:42:21.407Z,7.59
2023-03-03T19:45:03.064Z,7.43
2023-03-03T19:47:39.815Z,7.46
2023-03-03T19:50:18.739Z,7.61
2023-03-03T19:52:53.783Z,7.56
2023-03-03T19:55:41.486Z,7.82
2023-03-03T19:58:22.380Z,7.73
2023-03-03T20:00:56.834Z,7.50
2023-03-03T20:03:54.568Z,7.78
2023-03-03T20:06:38.755Z,7.70
2023-03-03T20:09:17.690Z,7.81
2023-03-03T20:12:09.533Z,7.72
2023-03-03T20:14:45.961Z,7.77
2023-03-03T20:17:36.347Z,7.88
2023-03-03T20:20:14.727Z,7.72
2023-03-03T20:22:53.995Z,7.57
2023-03-03T20:25:29.469Z,7.46
2023-03-03T20:28:06.592Z,7.46
2023-03-03T20:30:55.409Z,7.70
2023-03-03T20:33:39.593Z,7.72
2023-03-03T20:36:16.213Z,7.16
2023-03-03T20:38:54.080Z,7.41
2023-03-03T20:41:37.108Z,7.76
2023-03-03T20:44:18.358Z,7.85
2023-03-03T20:46:55.517Z,7.26
2023-03-03T20:49:39.154Z,7.64
2023-03-03T20:52:13.120Z,7.64
2023-03-03T20:54:47.058Z,7.77
2023-03-03T20:57:22.947Z,7.68
2023-03-03T21:00:00.509Z,7.62
2023-03-03T21:02:37.833Z,7.71
2023-03-03T21:05:15.567Z,7.81
2023-03-03T21:07:53.501Z,7.36
2023-03-03T21:10:25.196Z,7.40
2023-03-03T21:12:56.104Z,7.51
2023-03-03T21:15:27.868Z,7.30
2023-03-03T21:17:57.641Z,7.35
2023-03-03T21:20:29.466Z,7.42
2023-03-03T21:22:58.411Z,7.12
2023-03-03T21:25:52.110Z,7.05
2023-03-03T21:28:25.772Z,6.99
2023-03-03T21:31:12.311Z,7.18
2023-03-03T21:33:46.263Z,7.21
2023-03-03T21:36:15.780Z,7.45
2023-03-03T21:38:43.745Z,7.41
2023-03-03T21:41:12.689Z,7.42
2023-03-03T21:43:44.543Z,6.98
2023-03-03T21:46:13.416Z,7.41
2023-03-03T21:48:42.752Z,7.29
2023-03-03T21:51:13.928Z,7.36
2023-03-03T21:53:42.858Z,7.19
2023-03-03T21:56:10.987Z,7.32
2023-03-03T21:58:38.923Z,7.37
2023-03-03T22:01:08.677Z,7.10
2023-03-03T22:03:39.035Z,7.35
2023-03-03T22:06:07.802Z,7.46
2023-03-03T22:08:35.851Z,7.23
2023-03-03T22:11:03.760Z,7.22
2023-03-03T22:13:31.625Z,7.06
2023-03-03T22:15:59.534Z,7.13
2023-03-03T22:18:29.067Z,7.23
2023-03-03T22:20:56.938Z,7.26
2023-03-03T22:23:24.835Z,7.29
2023-03-03T22:25:52.838Z,7.07
2023-03-03T22:28:20.724Z,7.14
2023-03-03T22:30:48.845Z,7.27
2023-03-03T22:33:16.817Z,7.20
2023-03-03T22:35:46.128Z,7.19
2023-03-03T22:38:14.059Z,7.27
2023-03-03T22:40:42.033Z,6.90
2023-03-03T22:43:11.140Z,7.00
2023-03-03T22:45:39.076Z,7.12
2023-03-03T22:48:07.745Z,6.66
2023-03-03T22:50:39.434Z,7.06
2023-03-03T22:53:08.837Z,7.23
2023-03-03T22:55:37.211Z,7.31
2023-03-03T22:58:07.492Z,7.12
2023-03-03T23:00:38.340Z,7.03
2023-03-03T23:03:06.608Z,7.19
2023-03-03T23:05:35.803Z,6.96
2023-03-03T23:08:04.300Z,6.61
2023-03-03T23:10:33.692Z,6.72
2023-03-03T23:13:01.929Z,6.60
2023-03-03T23:15:29.959Z,6.33
2023-03-03T23:17:57.882Z,6.31
2023-03-03T23:20:27.916Z,6.31
2023-03-03T23:22:56.617Z,6.08
2023-03-03T23:25:25.598Z,6.12
2023-03-03T23:27:55.153Z,5.91
2023-03-03T23:30:24.106Z,6.11
2023-03-03T23:32:52.091Z,5.94
2023-03-03T23:35:20.215Z,6.01
2023-03-03T23:37:48.395Z,6.05
2023-03-03T23:40:17.307Z,5.83
2023-03-03T23:42:45.919Z,5.78
2023-03-03T23:45:15.228Z,5.96
2023-03-03T23:47:43.136Z,5.53
2023-03-03T23:50:12.899Z,5.68
2023-03-03T23:52:41.196Z,5.73
2023-03-03T23:55:10.014Z,5.78
2023-03-03T23:57:37.969Z,5.78
